Terminal Aerodrome Forecast
Issued by NWS Sterling, VA

Current Version | Previous Version | Text Only | Print | Product List | Glossary Off
Versions: 1 2 3 4 5 6 7 8 9 10 11 12 13 14 15 16 17 18 19

000
FTUS41 KLWX 061838 AAA
TAFMRB
TAF AMD
KMRB 061838Z 0619/0718 11007KT P6SM VCTS SCT050CB
      TEMPO 0619/0621 28020G35KT 3SM -TSRA BKN035CB
     FM070200 20008KT P6SM BKN050
     FM071000 00000KT 5SM BR BKN015
     FM071100 00000KT 5SM BR SCT015
     FM071300 00000KT P6SM SCT025=

USA.gov is the U.S. government's official web portal to all federal, state and local government web resources and services.